Taegu, Korea, Republic Of
Alba: 7:26 AM UTC9
Tramonto: 5:11 PM UTC9
 Lat: 35.88N, Lon: 128.65E
ICAO Used: RKTN
Condizioni Meteo Attuali Aggiornate: 15.12.19 - 19:00 UTC9
Quasi Sereno
Quasi Sereno
Sereno
Quasi Sereno
Temp: 0°C
Umidita': 93%
Direz/Vel. Vento: S 1 / KT raffiche
Pressione: 1028 hPa
Punto di rugiada: -1°C
Temperatura percepita: 0°C
Visibilitą: >10 KM (ottima)
Temperatura percepita in
presenza di vento (Wind Chill)
:
N/D
T. max (ultime 24 ore): 13°C
T. min (ultime 24 ore): N/D


METAR ORIGINALE
RKTN 151900Z 19001KT CAVOK 00/M01 Q1028



[ Indietro ]


Elaborazione dati by Datameteo.com - Lrc srl Copyright ©, All rights reserved.